Time;durP1;ratioP1;P1;durP2;ratioP2;P2;SDS_P1;SDS_P2;PMS_P1;PMS_P2;Temp;Humidity;BMP_temperature;BMP_pressure;BME280_temperature;BME280_humidity;BME280_pressure;Samples;Min_cycle;Max_cycle;Signal;HPM_P1;HPM_P2
2023/10/03 01:12:08;;;;;;;42.22;15.23;;;;;;;17.85;100.00;100719.44;5051464;28;20057;-87
2023/10/03 01:14:34;;;;;;;36.53;15.27;;;;;;;17.85;100.00;100704.91;5016530;28;20115;-87
2023/10/03 01:17:02;;;;;;;37.35;15.18;;;;;;;17.85;100.00;100710.38;5002213;28;20049;-87
2023/10/03 01:19:30;;;;;;;38.08;15.90;;;;;;;17.87;100.00;100699.97;5002283;28;20038;-87
2023/10/03 01:21:56;;;;;;;40.45;15.48;;;;;;;17.90;100.00;100702.19;5018781;28;20059;-90
2023/10/03 01:24:24;;;;;;;38.38;14.90;;;;;;;17.90;100.00;100699.44;5018239;28;20041;-90
2023/10/03 01:26:53;;;;;;;40.83;15.37;;;;;;;17.98;100.00;100700.84;5017954;28;20040;-90
2023/10/03 01:29:24;;;;;;;43.42;15.35;;;;;;;17.99;100.00;100697.81;5035924;28;20120;-89
2023/10/03 01:31:53;;;;;;;39.25;14.82;;;;;;;18.04;100.00;100692.38;5018124;28;20029;-90
2023/10/03 01:34:18;;;;;;;37.00;14.50;;;;;;;18.08;100.00;100692.66;5018576;28;20088;-90
2023/10/03 01:36:47;;;;;;;38.70;14.47;;;;;;;18.14;100.00;100694.31;5035531;28;20493;-90
2023/10/03 01:39:16;;;;;;;36.42;14.95;;;;;;;18.22;100.00;100687.47;5017647;28;20041;-90
2023/10/03 01:41:42;;;;;;;44.83;14.98;;;;;;;18.27;100.00;100679.25;5035637;28;20116;-89
2023/10/03 01:44:10;;;;;;;36.55;12.98;;;;;;;18.41;100.00;100674.06;5033914;28;20041;-90
2023/10/03 01:46:38;;;;;;;35.20;14.07;;;;;;;18.46;100.00;100685.06;5001539;28;20037;-90
2023/10/03 01:49:04;;;;;;;33.35;14.25;;;;;;;18.47;100.00;100694.09;5001544;28;20110;-90
2023/10/03 01:51:30;;;;;;;37.55;13.88;;;;;;;18.49;100.00;100684.50;5033796;28;20081;-90
2023/10/03 01:53:57;;;;;;;36.57;14.03;;;;;;;18.58;100.00;100680.13;5033996;28;20594;-89
2023/10/03 01:56:25;;;;;;;32.85;13.40;;;;;;;18.69;100.00;100682.88;5018212;28;20492;-90
2023/10/03 01:58:51;;;;;;;38.25;13.75;;;;;;;18.68;100.00;100679.31;5035043;28;20061;-90
2023/10/03 02:01:18;;;;;;;36.07;13.83;;;;;;;18.73;100.00;100676.59;5033643;28;20076;-90
2023/10/03 02:03:47;;;;;;;35.25;13.90;;;;;;;18.76;100.00;100676.03;5034957;28;20150;-90
2023/10/03 02:06:12;;;;;;;30.70;13.02;;;;;;;18.85;100.00;100675.47;5018205;28;20450;-90
2023/10/03 02:08:38;;;;;;;36.37;14.10;;;;;;;18.95;100.00;100674.69;5017529;28;20052;-90
2023/10/03 02:11:05;;;;;;;30.80;13.17;;;;;;;18.95;100.00;100678.25;5035457;28;20080;-90
2023/10/03 02:13:34;;;;;;;30.52;12.60;;;;;;;18.96;100.00;100668.09;5017230;28;20049;-91
2023/10/03 02:16:00;;;;;;;35.85;14.07;;;;;;;18.95;100.00;100661.75;5017299;28;20136;-90
2023/10/03 02:18:25;;;;;;;31.90;12.50;;;;;;;18.99;100.00;100662.03;5018109;28;20088;-90
2023/10/03 02:20:53;;;;;;;31.83;13.38;;;;;;;18.99;100.00;100659.28;4999862;28;20119;-90
2023/10/03 02:23:23;;;;;;;34.33;13.27;;;;;;;18.97;100.00;100637.56;5017068;28;20041;-90
2023/10/03 02:25:50;;;;;;;32.70;13.43;;;;;;;18.97;100.00;100626.56;5017120;28;20049;-90
2023/10/03 02:28:17;;;;;;;32.65;13.60;;;;;;;18.92;100.00;100646.63;5033417;28;20052;-90
2023/10/03 02:30:54;;;;;;;34.00;13.82;;;;;;;18.91;100.00;100653.25;5034762;28;20033;-90
2023/10/03 02:33:22;;;;;;;35.55;13.57;;;;;;;18.90;100.00;100662.56;5028197;28;20104;-90
2023/10/03 02:35:48;;;;;;;31.73;12.63;;;;;;;18.95;100.00;100659.00;5016821;28;20033;-90
2023/10/03 02:38:24;;;;;;;35.90;13.82;;;;;;;18.91;100.00;100668.88;5017690;28;20041;-90
2023/10/03 02:40:57;;;;;;;32.97;12.90;;;;;;;18.90;100.00;100651.59;5017215;28;20037;-90
2023/10/03 02:43:24;;;;;;;32.75;12.30;;;;;;;18.87;100.00;100656.81;5016530;28;20128;-90
2023/10/03 02:45:52;;;;;;;35.05;13.45;;;;;;;18.84;100.00;100662.81;5016800;28;20046;-90
2023/10/03 02:48:20;;;;;;;26.85;11.77;;;;;;;18.81;100.00;100666.94;5016870;28;20195;-90
2023/10/03 02:50:47;;;;;;;32.75;12.30;;;;;;;18.85;100.00;100664.47;5016646;28;20164;-90
2023/10/03 02:53:20;;;;;;;30.00;13.03;;;;;;;18.86;100.00;100671.66;5016414;28;20040;-91
2023/10/03 02:55:53;;;;;;;28.75;12.07;;;;;;;18.86;100.00;100669.72;5016743;28;20037;-91
2023/10/03 02:58:20;;;;;;;30.23;12.30;;;;;;;18.90;100.00;100681.00;5034517;28;20164;-90
2023/10/03 03:00:47;;;;;;;29.60;11.65;;;;;;;19.00;100.00;100683.75;5016439;28;20038;-90
2023/10/03 03:03:14;;;;;;;28.85;11.40;;;;;;;19.09;100.00;100670.28;5032641;28;20485;-90
2023/10/03 03:05:42;;;;;;;26.70;9.73;;;;;;;19.25;100.00;100695.81;5034133;28;20044;-91
2023/10/03 03:10:51;;;;;;;25.00;10.57;;;;;;;19.47;100.00;100659.72;5034116;28;20046;-90
2023/10/03 03:13:18;;;;;;;26.77;9.90;;;;;;;19.49;100.00;100657.53;5033325;28;20069;-90
2023/10/03 03:15:52;;;;;;;23.63;9.88;;;;;;;19.59;100.00;100689.66;5016617;28;20132;-90
2023/10/03 03:18:23;;;;;;;27.87;10.20;;;;;;;19.60;99.76;100670.13;5016875;28;20115;-90
2023/10/03 03:20:53;;;;;;;21.95;9.70;;;;;;;19.55;99.96;100667.41;5016040;28;20057;-90
2023/10/03 03:23:19;;;;;;;27.35;10.25;;;;;;;19.49;99.48;100665.78;5016106;28;20033;-90
2023/10/03 03:25:45;;;;;;;24.02;10.27;;;;;;;19.42;99.56;100666.06;5016428;28;20060;-90
2023/10/03 03:28:14;;;;;;;23.37;9.93;;;;;;;19.36;99.62;100666.38;5032658;28;20451;-90
2023/10/03 03:30:47;;;;;;;23.83;11.13;;;;;;;19.26;99.99;100661.69;5016053;28;20037;-90
2023/10/03 03:33:14;;;;;;;26.95;10.63;;;;;;;19.20;100.00;100660.88;5033614;28;20124;-90
2023/10/03 03:35:42;;;;;;;26.85;10.38;;;;;;;19.21;100.00;100658.97;5016029;28;20474;-90
2023/10/03 03:38:15;;;;;;;22.37;9.23;;;;;;;19.18;100.00;100665.03;5015398;28;20033;-90
2023/10/03 03:40:46;;;;;;;25.23;10.68;;;;;;;19.16;100.00;100664.47;5015852;28;20104;-90
2023/10/03 03:43:16;;;;;;;25.65;10.45;;;;;;;19.15;100.00;100663.66;5016076;28;20393;-91
2023/10/03 03:45:45;;;;;;;24.52;9.82;;;;;;;19.19;100.00;100664.75;5032550;28;20386;-90
2023/10/03 03:48:11;;;;;;;25.35;9.50;;;;;;;19.23;100.00;100665.00;5015973;28;20069;-89
2023/10/03 03:50:38;;;;;;;20.97;9.13;;;;;;;19.23;100.00;100676.00;5033776;28;20048;-90
2023/10/03 03:53:04;;;;;;;23.42;9.60;;;;;;;19.21;100.00;100665.28;5015787;28;20038;-91
2023/10/03 03:55:37;;;;;;;23.45;9.35;;;;;;;19.25;100.00;100669.13;5015833;28;20049;-90
2023/10/03 03:58:11;;;;;;;20.17;8.50;;;;;;;19.33;100.00;100676.00;5015452;28;20488;-90
2023/10/03 04:00:39;;;;;;;18.25;8.00;;;;;;;19.33;100.00;100677.94;5015770;28;20033;-90
2023/10/03 04:03:09;;;;;;;20.30;8.48;;;;;;;19.27;100.00;100685.38;5016023;28;20033;-90
2023/10/03 04:05:35;;;;;;;20.13;8.15;;;;;;;19.27;100.00;100699.94;5015609;28;20241;-90
2023/10/03 04:08:09;;;;;;;19.92;7.63;;;;;;;19.31;100.00;100683.72;5033375;28;20033;-90
2023/10/03 04:10:36;;;;;;;17.87;7.63;;;;;;;19.32;100.00;100701.03;5015468;28;20042;-90
2023/10/03 04:13:08;;;;;;;21.17;7.63;;;;;;;19.34;100.00;100696.06;5015357;28;20096;-90
2023/10/03 04:15:36;;;;;;;16.20;6.72;;;;;;;19.28;100.00;100698.84;5015734;28;20059;-90
2023/10/03 04:18:01;;;;;;;17.48;7.50;;;;;;;19.30;100.00;100708.75;5015541;28;20418;-90
2023/10/03 04:20:37;;;;;;;14.53;7.00;;;;;;;19.35;100.00;100701.28;5015535;28;20055;-90
2023/10/03 04:23:08;;;;;;;13.95;5.90;;;;;;;19.34;100.00;100701.56;5032988;28;20590;-91
2023/10/03 04:25:39;;;;;;;13.50;6.60;;;;;;;19.36;100.00;100713.94;5033547;28;20037;-90
2023/10/03 04:28:12;;;;;;;15.57;6.95;;;;;;;19.40;100.00;100716.94;5015636;28;20124;-90
2023/10/03 04:30:41;;;;;;;12.83;6.00;;;;;;;19.36;100.00;100718.63;5015082;28;20056;-90
2023/10/03 04:33:07;;;;;;;12.90;5.50;;;;;;;19.37;100.00;100729.34;5015532;28;20041;-90
2023/10/03 04:35:36;;;;;;;11.95;5.50;;;;;;;19.35;100.00;100722.47;5015575;28;20426;-90
2023/10/03 04:38:04;;;;;;;18.73;6.05;;;;;;;19.35;100.00;100727.97;4998811;28;20379;-90
2023/10/03 04:40:37;;;;;;;14.05;4.97;;;;;;;19.31;100.00;100729.63;5015305;28;20112;-90
2023/10/03 04:43:15;;;;;;;10.57;4.80;;;;;;;19.26;100.00;100727.72;5015775;28;20049;-90
2023/10/03 04:45:41;;;;;;;19.55;4.63;;;;;;;19.19;100.00;100722.50;5036023;28;20041;-90
2023/10/03 04:48:09;;;;;;;11.52;4.88;;;;;;;19.17;100.00;100743.13;5019070;28;20053;-89
2023/10/03 04:50:39;;;;;;;9.43;4.57;;;;;;;19.09;100.00;100755.50;5018968;28;20124;-90
2023/10/03 04:53:06;;;;;;;9.53;4.53;;;;;;;19.00;100.00;100735.13;5018370;28;20126;-89
2023/10/03 04:55:32;;;;;;;16.08;4.50;;;;;;;19.00;100.00;100759.88;5019033;28;20129;-89
2023/10/03 04:57:57;;;;;;;15.98;4.97;;;;;;;18.93;100.00;100750.00;5036266;28;20112;-89
2023/10/03 05:00:23;;;;;;;10.50;4.70;;;;;;;18.91;100.00;100754.94;5018959;28;20152;-89
2023/10/03 05:02:51;;;;;;;14.20;4.73;;;;;;;18.85;100.00;100747.78;5018751;28;20025;-89
2023/10/03 05:05:18;;;;;;;13.00;4.90;;;;;;;18.79;100.00;100759.03;5018559;28;20268;-89
2023/10/03 05:07:45;;;;;;;10.93;5.65;;;;;;;18.76;100.00;100743.88;5018448;28;20041;-89
2023/10/03 05:10:12;;;;;;;14.20;6.00;;;;;;;18.74;100.00;100751.59;5036568;28;20041;-89
2023/10/03 05:12:48;;;;;;;13.00;5.88;;;;;;;18.70;100.00;100775.22;5018513;28;20048;-89
2023/10/03 05:15:16;;;;;;;15.15;5.30;;;;;;;18.65;100.00;100775.22;5018227;28;20140;-89
2023/10/03 05:17:46;;;;;;;14.73;5.10;;;;;;;18.63;100.00;100785.63;5018969;28;20052;-89
2023/10/03 05:20:13;;;;;;;12.07;4.90;;;;;;;18.62;100.00;100797.75;5018266;28;20064;-89
2023/10/03 05:22:40;;;;;;;9.65;4.85;;;;;;;18.54;100.00;100799.91;5034735;28;20068;-89
2023/10/03 05:25:13;;;;;;;12.70;5.22;;;;;;;18.52;100.00;100793.03;5035710;28;20037;-92
2023/10/03 05:27:41;;;;;;;17.73;5.20;;;;;;;18.48;100.00;100762.50;5002292;28;20037;-89
2023/10/03 05:30:09;;;;;;;13.63;5.23;;;;;;;18.43;100.00;100768.00;5018359;28;20096;-89
2023/10/03 05:32:36;;;;;;;14.93;5.28;;;;;;;18.38;100.00;100777.06;5018363;28;20497;-88
2023/10/03 05:35:06;;;;;;;10.80;4.88;;;;;;;18.40;100.00;100768.53;5034830;28;20037;-89
2023/10/03 05:37:34;;;;;;;11.65;5.07;;;;;;;18.33;100.00;100760.56;5018228;28;20042;-89
2023/10/03 05:40:23;;;;;;;13.75;5.63;;;;;;;18.30;100.00;100777.56;5017617;28;20048;-89
2023/10/03 05:42:49;;;;;;;14.03;5.00;;;;;;;18.32;100.00;100785.53;5018476;28;20377;-89
2023/10/03 05:45:19;;;;;;;11.45;4.80;;;;;;;18.28;100.00;100779.78;5035587;28;20042;-89
2023/10/03 05:47:49;;;;;;;9.75;5.22;;;;;;;18.25;100.00;100777.56;5018147;28;20095;-89
2023/10/03 05:50:16;;;;;;;14.45;5.18;;;;;;;18.28;100.00;100792.66;5017771;28;20042;-89
2023/10/03 05:52:46;;;;;;;9.20;4.80;;;;;;;18.23;100.00;100776.97;5018076;28;20034;-89
2023/10/03 05:55:12;;;;;;;12.57;4.88;;;;;;;18.22;100.00;100783.59;5035340;28;20473;-89
2023/10/03 05:57:42;;;;;;;14.68;5.05;;;;;;;18.20;100.00;100789.34;5018746;28;20033;-89
2023/10/03 06:00:18;;;;;;;14.52;5.00;;;;;;;18.17;100.00;100789.03;5018158;28;20052;-88
2023/10/03 06:02:53;;;;;;;15.83;4.70;;;;;;;18.16;100.00;100804.72;5017096;28;20038;-88
2023/10/03 06:08:45;;;;;;;9.93;4.72;;;;;;;18.15;100.00;100794.00;5035031;28;20043;-90
2023/10/03 06:11:13;;;;;;;10.40;4.55;;;;;;;18.15;100.00;100791.25;5016712;28;20037;-89
2023/10/03 06:13:44;;;;;;;11.03;5.20;;;;;;;18.12;100.00;100792.59;5016812;28;20103;-89
2023/10/03 06:16:14;;;;;;;15.45;5.30;;;;;;;18.15;100.00;100797.56;5017103;28;20037;-89
2023/10/03 06:18:42;;;;;;;14.82;5.32;;;;;;;18.09;100.00;100795.06;5017441;28;20482;-88
2023/10/03 06:21:10;;;;;;;10.18;5.18;;;;;;;18.12;100.00;100803.59;5017607;28;20092;-90
2023/10/03 06:23:39;;;;;;;13.53;5.13;;;;;;;18.10;100.00;100810.44;5017403;28;20096;-89
2023/10/03 06:26:07;;;;;;;13.07;5.78;;;;;;;18.10;100.00;100818.66;5016916;28;20415;-89
2023/10/03 06:28:35;;;;;;;12.10;5.28;;;;;;;18.04;100.00;100817.81;5016871;28;20037;-89
2023/10/03 06:31:02;;;;;;;8.98;5.15;;;;;;;18.04;100.00;100828.78;5016255;28;20045;-89
2023/10/03 06:33:31;;;;;;;12.40;5.63;;;;;;;18.00;100.00;100825.75;5000529;28;20096;-89
2023/10/03 06:35:56;;;;;;;15.40;5.77;;;;;;;18.01;100.00;100818.34;5034630;28;20128;-88
2023/10/03 06:38:27;;;;;;;13.88;5.57;;;;;;;18.02;100.00;100833.72;5017765;28;20493;-89
2023/10/03 06:40:54;;;;;;;13.63;5.90;;;;;;;18.06;100.00;100821.94;5000764;28;20136;-88
2023/10/03 06:43:22;;;;;;;18.02;5.63;;;;;;;18.05;100.00;100827.69;5016820;28;20043;-89
2023/10/03 06:45:47;;;;;;;12.23;5.50;;;;;;;18.05;100.00;100839.53;5017023;28;20044;-89
2023/10/03 06:48:13;;;;;;;10.90;4.43;;;;;;;18.03;100.00;100832.66;5016394;28;20132;-89
2023/10/03 06:50:38;;;;;;;11.23;4.85;;;;;;;18.02;100.00;100850.19;5015771;28;20492;-89
2023/10/03 06:53:05;;;;;;;9.20;4.73;;;;;;;18.02;100.00;100845.53;5016811;28;20092;-89
2023/10/03 06:55:42;;;;;;;12.85;5.32;;;;;;;18.03;100.00;100865.59;5016254;28;20057;-88
2023/10/03 06:58:07;;;;;;;13.60;5.28;;;;;;;18.06;100.00;100867.81;5016378;28;20045;-88
2023/10/03 07:00:36;;;;;;;14.77;5.60;;;;;;;18.13;100.00;100860.16;5016428;28;20035;-88
2023/10/03 07:03:12;;;;;;;14.15;5.55;;;;;;;18.10;100.00;100866.19;5016357;28;20045;-89
2023/10/03 07:05:38;;;;;;;11.95;5.70;;;;;;;18.07;100.00;100863.97;5016776;28;20140;-88
2023/10/03 07:08:08;;;;;;;11.97;5.67;;;;;;;17.98;100.00;100871.03;5015880;28;20537;-89
2023/10/03 07:10:36;;;;;;;14.82;5.78;;;;;;;17.85;100.00;100862.13;5000329;28;20044;-89
2023/10/03 07:13:04;;;;;;;11.37;5.30;;;;;;;17.79;100.00;100870.59;5016086;28;20087;-89
2023/10/03 07:15:33;;;;;;;14.52;5.78;;;;;;;17.75;100.00;100866.75;5016303;28;20049;-88
2023/10/03 07:18:04;;;;;;;13.15;5.40;;;;;;;17.70;100.00;100871.09;5034070;28;20049;-89
2023/10/03 07:20:34;;;;;;;11.75;5.38;;;;;;;17.50;100.00;100876.41;5016444;28;20041;-89
2023/10/03 07:23:02;;;;;;;13.48;6.15;;;;;;;17.31;100.00;100889.69;5016088;28;20521;-88
2023/10/03 07:25:45;;;;;;;13.53;6.90;;;;;;;17.15;100.00;100889.50;5016298;28;20060;-89
2023/10/03 07:28:14;;;;;;;21.23;8.90;;;;;;;16.93;100.00;100881.34;5033010;28;20470;-89
2023/10/03 07:30:44;;;;;;;16.70;7.65;;;;;;;16.79;100.00;100880.06;5016222;28;20115;-89
2023/10/03 07:33:11;;;;;;;14.32;7.38;;;;;;;16.69;100.00;100882.66;5016691;28;20079;-88
2023/10/03 07:35:41;;;;;;;18.05;8.52;;;;;;;16.64;100.00;100888.91;5016928;28;20064;-88
2023/10/03 07:38:11;;;;;;;14.90;7.57;;;;;;;16.66;100.00;100895.78;5016529;28;20397;-88
2023/10/03 07:40:38;;;;;;;17.05;7.90;;;;;;;16.67;100.00;100897.44;5015842;28;20034;-88
2023/10/03 07:43:14;;;;;;;18.00;7.65;;;;;;;16.67;100.00;100900.19;5015663;28;20076;-89
2023/10/03 07:45:42;;;;;;;17.67;7.65;;;;;;;16.67;100.00;100910.31;5015868;28;20026;-88
2023/10/03 07:48:11;;;;;;;15.50;7.70;;;;;;;16.64;100.00;100924.53;5015854;28;20559;-89
2023/10/03 07:50:37;;;;;;;23.23;8.93;;;;;;;16.70;100.00;100925.41;5015734;28;20044;-88
2023/10/03 07:53:11;;;;;;;15.15;7.70;;;;;;;16.71;100.00;100932.53;5015392;28;20033;-89
2023/10/03 07:55:39;;;;;;;15.32;6.97;;;;;;;16.74;100.00;100960.28;5016235;28;20037;-90
2023/10/03 07:58:06;;;;;;;13.90;7.82;;;;;;;16.78;100.00;100930.44;5015650;28;20080;-89
2023/10/03 08:00:32;;;;;;;16.38;6.40;;;;;;;16.82;100.00;100931.59;5015593;28;20490;-89
2023/10/03 08:02:58;;;;;;;12.80;6.60;;;;;;;16.90;100.00;100939.38;4999384;28;20040;-89
2023/10/03 08:05:32;;;;;;;12.20;6.45;;;;;;;16.91;100.00;100941.06;5015730;28;20436;-89
2023/10/03 08:07:57;;;;;;;13.38;6.28;;;;;;;16.86;100.00;100967.53;5033368;28;20199;-90
2023/10/03 08:10:30;;;;;;;16.27;7.07;;;;;;;16.75;100.00;100967.41;5033677;28;20465;-90
2023/10/03 08:13:03;;;;;;;13.98;7.43;;;;;;;16.55;100.00;100998.09;5015558;28;20033;-89
2023/10/03 08:15:42;;;;;;;15.57;7.53;;;;;;;16.40;100.00;100981.41;5015673;28;20477;-88
2023/10/03 08:18:17;;;;;;;18.58;7.55;;;;;;;16.25;100.00;100971.06;5000212;28;20054;-89
2023/10/03 08:20:43;;;;;;;13.03;6.40;;;;;;;16.15;100.00;101018.28;5018748;28;20076;-88
2023/10/03 08:23:13;;;;;;;15.00;5.80;;;;;;;16.08;100.00;101003.94;5037626;28;20095;-89
2023/10/03 08:25:41;;;;;;;9.85;4.60;;;;;;;15.96;100.00;101007.56;5019435;28;20095;-88
2023/10/03 08:28:10;;;;;;;7.75;3.85;;;;;;;15.90;100.00;101004.97;5019870;28;20052;-89
2023/10/03 08:30:35;;;;;;;11.25;4.00;;;;;;;15.90;100.00;101029.59;5019067;28;20033;-88
2023/10/03 08:33:05;;;;;;;9.10;4.07;;;;;;;15.90;100.00;101022.25;5019221;28;20080;-88
2023/10/03 08:35:39;;;;;;;8.32;3.38;;;;;;;15.90;100.00;101013.19;5037021;28;20477;-89
2023/10/03 08:38:13;;;;;;;11.02;3.33;;;;;;;15.96;100.00;101017.69;5019213;28;20048;-89
2023/10/03 08:40:49;;;;;;;7.50;3.37;;;;;;;16.05;100.00;101026.31;5019787;28;20135;-88
2023/10/03 08:43:25;;;;;;;8.27;2.85;;;;;;;16.07;100.00;101043.31;5037340;28;20469;-89
2023/10/03 08:45:55;;;;;;;6.10;2.45;;;;;;;16.08;100.00;101031.31;5019278;28;20041;-90
2023/10/03 08:48:29;;;;;;;8.27;2.70;;;;;;;16.12;100.00;101049.72;5019011;28;20124;-89
2023/10/03 08:50:58;;;;;;;8.82;2.80;;;;;;;16.14;100.00;101055.75;5018942;28;20041;-89
2023/10/03 08:53:27;;;;;;;8.03;2.57;;;;;;;16.14;100.00;101063.97;5019131;28;20448;-89
2023/10/03 08:55:58;;;;;;;4.65;2.28;;;;;;;16.21;100.00;101062.97;5018850;28;20041;-89
2023/10/03 08:58:33;;;;;;;6.22;2.25;;;;;;;16.22;100.00;101064.66;5019338;28;20140;-90
2023/10/03 09:00:58;;;;;;;7.82;2.17;;;;;;;16.09;100.00;101083.06;5018721;28;20048;-90
2023/10/03 09:03:26;;;;;;;3.27;0.90;;;;;;;15.95;100.00;101087.16;5018575;28;20037;-89
2023/10/03 09:05:59;;;;;;;5.45;0.60;;;;;;;15.74;100.00;101096.88;5018750;28;20056;-90
2023/10/03 09:08:30;;;;;;;2.83;0.55;;;;;;;15.68;100.00;101111.50;5018744;28;20033;-90
2023/10/03 09:10:55;;;;;;;2.47;0.60;;;;;;;15.69;100.00;101113.16;5018384;28;20057;-88
2023/10/03 09:13:28;;;;;;;3.63;0.85;;;;;;;15.82;100.00;101114.84;5019208;28;20037;-88
2023/10/03 09:16:02;;;;;;;5.17;0.83;;;;;;;15.96;100.00;101111.56;5018698;28;20054;-89
2023/10/03 09:18:42;;;;;;;3.10;0.68;;;;;;;16.13;100.00;101128.00;5018953;28;20033;-89
2023/10/03 09:21:23;;;;;;;4.55;0.80;;;;;;;16.20;100.00;101135.25;5019327;28;20068;-89
2023/10/03 09:24:09;;;;;;;2.63;0.65;;;;;;;16.42;100.00;101149.06;5018300;28;20040;-89
2023/10/03 09:26:45;;;;;;;3.35;0.70;;;;;;;16.59;100.00;101152.59;5018291;28;20041;-89
2023/10/03 09:29:18;;;;;;;7.43;0.90;;;;;;;16.59;100.00;101152.59;5018231;28;20396;-89
2023/10/03 09:31:48;;;;;;;2.60;0.70;;;;;;;16.65;100.00;101167.22;5018033;28;20086;-84
2023/10/03 09:34:18;;;;;;;3.72;0.70;;;;;;;16.75;100.00;101167.41;5036058;28;20083;-88
2023/10/03 09:36:43;;;;;;;2.40;0.75;;;;;;;16.67;100.00;101168.66;5035990;28;20065;-88
2023/10/03 09:39:27;;;;;;;4.17;1.17;;;;;;;16.52;100.00;101176.63;5018248;28;20081;-89
2023/10/03 09:41:57;;;;;;;3.33;0.60;;;;;;;16.38;100.00;101169.78;5018250;28;20133;-89
2023/10/03 09:44:32;;;;;;;2.58;0.50;;;;;;;16.36;100.00;101163.72;5018522;28;20033;-89
2023/10/03 09:47:12;;;;;;;2.00;0.63;;;;;;;16.35;100.00;101167.53;5036273;28;20045;-89
2023/10/03 09:49:39;;;;;;;7.90;1.20;;;;;;;16.26;100.00;101164.38;5019358;28;20041;-89
2023/10/03 09:52:09;;;;;;;5.45;1.13;;;;;;;16.18;100.00;101192.97;5018569;28;20091;-89
2023/10/03 09:54:39;;;;;;;5.40;1.20;;;;;;;16.09;100.00;101186.22;5019914;28;20030;-89
2023/10/03 09:57:28;;;;;;;3.45;1.10;;;;;;;16.19;100.00;101194.63;5036898;28;20048;-89
2023/10/03 09:59:52;;;;;;;5.53;1.20;;;;;;;16.27;100.00;101188.75;5021402;28;20052;-88
2023/10/03 10:02:31;;;;;;;4.63;1.07;;;;;;;16.44;100.00;101198.91;5018914;28;20041;-89
2023/10/03 10:05:20;;;;;;;7.90;1.20;;;;;;;16.72;100.00;101197.22;5034995;28;20042;-88
2023/10/03 10:08:06;;;;;;;3.72;1.10;;;;;;;16.94;100.00;101211.03;5018986;28;20548;-89
2023/10/03 10:10:35;;;;;;;5.38;1.10;;;;;;;17.14;100.00;101211.38;5018271;28;20033;-87
2023/10/03 10:13:22;;;;;;;5.60;1.17;;;;;;;17.19;100.00;101211.44;5018169;28;20136;-84
2023/10/03 10:16:22;;;;;;;7.00;1.00;;;;;;;17.16;100.00;101222.91;5018510;28;20060;-88
2023/10/03 10:18:51;;;;;;;6.38;1.15;;;;;;;17.04;100.00;101226.81;5036901;28;20117;-88
2023/10/03 10:21:20;;;;;;;3.05;0.95;;;;;;;16.73;100.00;101264.66;5017679;28;20096;-88
2023/10/03 10:24:11;;;;;;;4.20;0.90;;;;;;;16.57;100.00;101282.69;5018466;28;20034;-88
2023/10/03 10:26:38;;;;;;;7.72;1.15;;;;;;;16.57;100.00;101263.53;5017538;28;20426;-87
2023/10/03 10:29:14;;;;;;;3.80;1.10;;;;;;;16.73;100.00;101268.22;5035296;28;20073;-87
2023/10/03 10:31:44;;;;;;;4.07;0.75;;;;;;;16.84;100.00;101267.31;5017796;28;20034;-88
2023/10/03 10:34:26;;;;;;;4.50;1.17;;;;;;;17.02;100.00;101265.44;5001399;28;20044;-89
2023/10/03 10:37:15;;;;;;;7.05;1.00;;;;;;;17.46;100.00;101273.81;5034628;28;20516;-88
2023/10/03 10:40:15;;;;;;;3.60;1.05;;;;;;;17.93;100.00;101277.25;5034950;28;20499;-88
2023/10/03 10:43:16;;;;;;;3.80;0.67;;;;;;;18.06;100.00;101283.19;5016947;28;20041;-90
2023/10/03 10:45:44;;;;;;;2.45;0.60;;;;;;;18.05;100.00;101291.69;5013587;28;20046;-89
2023/10/03 10:48:12;;;;;;;2.72;0.88;;;;;;;17.92;100.00;101303.84;5017504;28;20478;-89
2023/10/03 10:51:04;;;;;;;1.77;0.50;;;;;;;17.67;100.00;101305.16;5016994;28;20045;-89
2023/10/03 10:53:40;;;;;;;1.77;0.50;;;;;;;17.38;100.00;101325.50;5028937;28;20040;-89
2023/10/03 10:56:10;;;;;;;3.20;0.50;;;;;;;16.86;100.00;101299.94;5017890;28;20095;-90
2023/10/03 10:59:10;;;;;;;2.90;0.90;;;;;;;16.39;100.00;101313.84;5017164;28;20125;-90
2023/10/03 11:01:39;;;;;;;1.77;0.50;;;;;;;16.03;100.00;101313.91;5033186;28;20034;-89
2023/10/03 11:04:29;;;;;;;4.18;0.75;;;;;;;15.88;100.00;101339.03;5017418;28;20536;-90
2023/10/03 11:06:55;;;;;;;4.25;0.77;;;;;;;15.69;100.00;101323.78;5016499;28;20045;-89
2023/10/03 11:09:23;;;;;;;3.80;0.63;;;;;;;15.85;100.00;101341.44;5016707;28;20535;-90
2023/10/03 11:11:52;;;;;;;4.00;0.60;;;;;;;15.76;100.00;101344.47;5016617;28;20041;-91
2023/10/03 11:14:31;;;;;;;4.22;0.57;;;;;;;15.56;100.00;101331.19;5016365;28;20144;-89
2023/10/03 11:16:58;;;;;;;3.60;0.90;;;;;;;15.59;100.00;101335.34;5017274;28;20161;-89
2023/10/03 11:19:24;;;;;;;2.28;0.60;;;;;;;15.65;100.00;101345.34;5016833;28;20037;-89
2023/10/03 11:21:51;;;;;;;2.07;0.50;;;;;;;15.98;100.00;101322.03;5016403;28;20045;-88
2023/10/03 11:24:20;;;;;;;3.53;0.80;;;;;;;16.76;100.00;101325.25;5017726;28;20037;-89
2023/10/03 11:26:59;;;;;;;3.85;1.00;;;;;;;17.86;100.00;101327.66;5016587;28;20072;-88
2023/10/03 11:29:48;;;;;;;4.38;0.90;;;;;;;18.60;100.00;101336.56;5033683;28;20386;-88
2023/10/03 11:32:23;;;;;;;2.40;0.60;;;;;;;18.94;100.00;101341.88;5034883;28;20038;-88
2023/10/03 11:34:59;;;;;;;3.23;0.60;;;;;;;19.25;100.00;101355.94;5016619;28;20069;-89
2023/10/03 11:37:46;;;;;;;5.18;0.60;;;;;;;19.26;100.00;101344.66;5016467;28;20037;-89
2023/10/03 11:40:19;;;;;;;1.80;0.70;;;;;;;19.82;95.66;101348.16;5016309;28;20124;-89
2023/10/03 11:43:03;;;;;;;3.65;0.80;;;;;;;19.99;96.25;101348.81;5016380;28;20033;-89
2023/10/03 11:45:31;;;;;;;3.42;0.85;;;;;;;19.94;93.78;101363.38;5015692;28;20034;-89
2023/10/03 11:48:17;;;;;;;5.80;1.00;;;;;;;19.03;96.67;101362.34;5015860;28;20461;-89
2023/10/03 11:50:47;;;;;;;6.05;1.17;;;;;;;18.15;100.00;101384.34;4999901;28;20091;-89
2023/10/03 11:53:18;;;;;;;3.78;1.20;;;;;;;17.40;100.00;101411.13;5016865;28;20041;-95
2023/10/03 11:55:51;;;;;;;5.70;1.10;;;;;;;16.72;100.00;101406.25;5022379;28;20094;-91
2023/10/03 11:58:22;;;;;;;3.92;1.10;;;;;;;16.43;100.00;101402.63;5022702;28;20091;-90
2023/10/03 12:00:51;;;;;;;2.97;1.07;;;;;;;16.27;100.00;101423.41;5023133;28;20052;-90
2023/10/03 12:03:19;;;;;;;5.80;1.42;;;;;;;16.07;100.00;101418.28;5022277;28;20037;-91
2023/10/03 12:05:56;;;;;;;5.30;1.20;;;;;;;15.68;100.00;101426.91;5022462;28;20388;-90
2023/10/03 12:08:23;;;;;;;4.30;1.02;;;;;;;15.53;100.00;101424.63;5022461;28;20037;-87
2023/10/03 12:10:49;;;;;;;4.57;1.20;;;;;;;15.52;100.00;101431.16;5039880;28;20040;-88
2023/10/03 12:13:18;;;;;;;5.03;1.37;;;;;;;15.66;100.00;101447.34;5021814;28;20042;-94
2023/10/03 12:15:45;;;;;;;4.97;1.30;;;;;;;15.98;100.00;101453.38;5021859;28;20065;-88
2023/10/03 12:18:15;;;;;;;5.45;1.30;;;;;;;16.03;100.00;101450.75;5022042;28;20056;-88
2023/10/03 12:20:41;;;;;;;4.75;1.60;;;;;;;16.01;100.00;101455.66;5022173;28;20385;-88
2023/10/03 12:23:10;;;;;;;6.93;1.60;;;;;;;16.86;100.00;101458.06;5039713;28;20042;-93
2023/10/03 12:25:35;;;;;;;5.63;1.30;;;;;;;17.22;100.00;101484.31;5022350;28;20045;-88
2023/10/03 12:28:03;;;;;;;7.63;1.40;;;;;;;17.77;100.00;101471.03;5005657;28;20041;-88
2023/10/03 12:30:34;;;;;;;5.87;1.50;;;;;;;18.15;100.00;101464.81;5022041;28;20609;-88
2023/10/03 12:33:08;;;;;;;4.93;1.50;;;;;;;21.26;87.22;101492.16;5022466;28;20045;-87
2023/10/03 12:35:36;;;;;;;5.40;1.40;;;;;;;22.64;76.31;101471.19;5039909;28;20057;-88
2023/10/03 12:38:02;;;;;;;5.27;1.80;;;;;;;25.22;71.94;101477.03;5021805;28;20038;-88
2023/10/03 12:40:29;;;;;;;3.72;1.50;;;;;;;28.35;56.77;101482.13;5022207;28;20103;-87
2023/10/03 12:42:58;;;;;;;7.27;2.37;;;;;;;29.60;50.10;101474.53;5021862;28;20490;-88
2023/10/03 12:45:26;;;;;;;5.60;1.83;;;;;;;30.13;47.62;101483.66;5039491;28;20049;-88